sensor_id;sensor_type;location;lat;lon;timestamp;P1;durP1;ratioP1;P2;durP2;ratioP2
4422;SDS011;2224;49.814;8.650;2023-12-04T00:01:24;24.55;;;15.60;;
4422;SDS011;2224;49.814;8.650;2023-12-04T00:03:51;28.65;;;16.80;;
4422;SDS011;2224;49.814;8.650;2023-12-04T00:06:16;24.50;;;16.00;;
4422;SDS011;2224;49.814;8.650;2023-12-04T00:08:41;27.10;;;17.63;;
4422;SDS011;2224;49.814;8.650;2023-12-04T00:11:07;28.33;;;17.53;;
4422;SDS011;2224;49.814;8.650;2023-12-04T00:13:32;21.27;;;15.10;;
4422;SDS011;2224;49.814;8.650;2023-12-04T00:15:58;28.30;;;16.60;;
4422;SDS011;2224;49.814;8.650;2023-12-04T00:18:23;26.33;;;16.40;;
4422;SDS011;2224;49.814;8.650;2023-12-04T00:20:49;23.13;;;15.10;;
4422;SDS011;2224;49.814;8.650;2023-12-04T00:23:14;25.77;;;14.77;;
4422;SDS011;2224;49.814;8.650;2023-12-04T00:25:39;27.30;;;15.90;;
4422;SDS011;2224;49.814;8.650;2023-12-04T00:28:05;29.93;;;17.30;;
4422;SDS011;2224;49.814;8.650;2023-12-04T00:30:30;24.80;;;15.67;;
4422;SDS011;2224;49.814;8.650;2023-12-04T00:32:55;24.63;;;16.07;;
4422;SDS011;2224;49.814;8.650;2023-12-04T00:35:21;24.33;;;16.47;;
4422;SDS011;2224;49.814;8.650;2023-12-04T00:37:46;24.77;;;17.10;;
4422;SDS011;2224;49.814;8.650;2023-12-04T00:40:11;24.87;;;16.47;;
4422;SDS011;2224;49.814;8.650;2023-12-04T00:42:37;25.10;;;16.20;;
4422;SDS011;2224;49.814;8.650;2023-12-04T00:45:02;26.40;;;15.63;;
4422;SDS011;2224;49.814;8.650;2023-12-04T00:47:28;24.65;;;16.13;;
4422;SDS011;2224;49.814;8.650;2023-12-04T00:49:54;27.43;;;16.13;;
4422;SDS011;2224;49.814;8.650;2023-12-04T00:52:19;27.10;;;17.20;;
4422;SDS011;2224;49.814;8.650;2023-12-04T00:54:44;23.03;;;14.90;;
4422;SDS011;2224;49.814;8.650;2023-12-04T00:57:10;21.57;;;15.00;;
4422;SDS011;2224;49.814;8.650;2023-12-04T00:59:35;26.43;;;16.37;;
4422;SDS011;2224;49.814;8.650;2023-12-04T01:02:00;21.60;;;14.60;;
4422;SDS011;2224;49.814;8.650;2023-12-04T01:04:26;22.23;;;16.83;;
4422;SDS011;2224;49.814;8.650;2023-12-04T01:06:51;22.93;;;14.57;;
4422;SDS011;2224;49.814;8.650;2023-12-04T01:09:17;25.87;;;15.97;;
4422;SDS011;2224;49.814;8.650;2023-12-04T01:11:42;22.37;;;16.20;;
4422;SDS011;2224;49.814;8.650;2023-12-04T01:14:07;24.40;;;16.13;;
4422;SDS011;2224;49.814;8.650;2023-12-04T01:16:33;25.47;;;16.10;;
4422;SDS011;2224;49.814;8.650;2023-12-04T01:18:58;23.57;;;15.23;;
4422;SDS011;2224;49.814;8.650;2023-12-04T01:21:23;26.43;;;16.07;;
4422;SDS011;2224;49.814;8.650;2023-12-04T01:23:49;26.23;;;16.27;;
4422;SDS011;2224;49.814;8.650;2023-12-04T01:26:14;25.13;;;17.00;;
4422;SDS011;2224;49.814;8.650;2023-12-04T01:28:39;24.47;;;16.10;;
4422;SDS011;2224;49.814;8.650;2023-12-04T01:31:05;25.40;;;16.13;;
4422;SDS011;2224;49.814;8.650;2023-12-04T01:33:31;23.17;;;15.20;;
4422;SDS011;2224;49.814;8.650;2023-12-04T01:35:56;25.03;;;16.30;;
4422;SDS011;2224;49.814;8.650;2023-12-04T01:38:21;24.93;;;16.17;;
4422;SDS011;2224;49.814;8.650;2023-12-04T01:40:47;30.57;;;17.30;;
4422;SDS011;2224;49.814;8.650;2023-12-04T01:43:12;28.07;;;16.30;;
4422;SDS011;2224;49.814;8.650;2023-12-04T01:45:37;23.03;;;14.30;;
4422;SDS011;2224;49.814;8.650;2023-12-04T01:48:03;22.53;;;16.50;;
4422;SDS011;2224;49.814;8.650;2023-12-04T01:50:30;25.58;;;16.60;;
4422;SDS011;2224;49.814;8.650;2023-12-04T01:52:56;19.53;;;13.37;;
4422;SDS011;2224;49.814;8.650;2023-12-04T01:55:21;24.83;;;15.17;;
4422;SDS011;2224;49.814;8.650;2023-12-04T01:57:47;21.27;;;14.40;;
4422;SDS011;2224;49.814;8.650;2023-12-04T02:00:12;22.93;;;16.00;;
4422;SDS011;2224;49.814;8.650;2023-12-04T02:02:41;23.50;;;14.27;;
4422;SDS011;2224;49.814;8.650;2023-12-04T02:05:10;24.00;;;14.63;;
4422;SDS011;2224;49.814;8.650;2023-12-04T02:07:36;25.88;;;15.88;;
4422;SDS011;2224;49.814;8.650;2023-12-04T02:10:04;22.77;;;15.00;;
4422;SDS011;2224;49.814;8.650;2023-12-04T02:12:31;24.17;;;15.30;;
4422;SDS011;2224;49.814;8.650;2023-12-04T02:14:56;24.93;;;14.90;;
4422;SDS011;2224;49.814;8.650;2023-12-04T02:17:22;23.10;;;14.40;;
4422;SDS011;2224;49.814;8.650;2023-12-04T02:19:49;26.05;;;14.55;;
4422;SDS011;2224;49.814;8.650;2023-12-04T02:22:15;24.47;;;15.83;;
4422;SDS011;2224;49.814;8.650;2023-12-04T02:24:42;24.42;;;14.73;;
4422;SDS011;2224;49.814;8.650;2023-12-04T02:27:12;20.63;;;14.13;;
4422;SDS011;2224;49.814;8.650;2023-12-04T02:29:43;21.75;;;15.88;;
4422;SDS011;2224;49.814;8.650;2023-12-04T02:32:17;20.23;;;14.25;;
4422;SDS011;2224;49.814;8.650;2023-12-04T02:34:43;23.30;;;14.98;;
4422;SDS011;2224;49.814;8.650;2023-12-04T02:37:11;23.92;;;15.55;;
4422;SDS011;2224;49.814;8.650;2023-12-04T02:39:36;22.23;;;14.37;;
4422;SDS011;2224;49.814;8.650;2023-12-04T02:42:02;18.20;;;12.77;;
4422;SDS011;2224;49.814;8.650;2023-12-04T02:44:28;18.75;;;13.27;;
4422;SDS011;2224;49.814;8.650;2023-12-04T02:46:53;20.70;;;14.00;;
4422;SDS011;2224;49.814;8.650;2023-12-04T02:49:19;19.70;;;12.97;;
4422;SDS011;2224;49.814;8.650;2023-12-04T02:51:44;20.07;;;13.50;;
4422;SDS011;2224;49.814;8.650;2023-12-04T02:54:09;22.70;;;13.43;;
4422;SDS011;2224;49.814;8.650;2023-12-04T02:56:34;23.73;;;15.77;;
4422;SDS011;2224;49.814;8.650;2023-12-04T02:59:00;21.70;;;13.10;;
4422;SDS011;2224;49.814;8.650;2023-12-04T03:01:25;20.10;;;13.23;;
4422;SDS011;2224;49.814;8.650;2023-12-04T03:03:50;20.37;;;12.80;;
4422;SDS011;2224;49.814;8.650;2023-12-04T03:06:16;21.73;;;14.43;;
4422;SDS011;2224;49.814;8.650;2023-12-04T03:08:42;21.80;;;13.70;;
4422;SDS011;2224;49.814;8.650;2023-12-04T03:11:07;23.95;;;13.98;;
4422;SDS011;2224;49.814;8.650;2023-12-04T03:13:33;18.03;;;13.10;;
4422;SDS011;2224;49.814;8.650;2023-12-04T03:15:59;21.65;;;12.55;;
4422;SDS011;2224;49.814;8.650;2023-12-04T03:18:24;20.70;;;13.63;;
4422;SDS011;2224;49.814;8.650;2023-12-04T03:20:50;18.23;;;13.00;;
4422;SDS011;2224;49.814;8.650;2023-12-04T03:23:16;16.40;;;11.90;;
4422;SDS011;2224;49.814;8.650;2023-12-04T03:25:41;17.17;;;12.07;;
4422;SDS011;2224;49.814;8.650;2023-12-04T03:28:06;17.77;;;13.80;;
4422;SDS011;2224;49.814;8.650;2023-12-04T03:30:32;16.20;;;11.27;;
4422;SDS011;2224;49.814;8.650;2023-12-04T03:32:57;22.10;;;13.00;;
4422;SDS011;2224;49.814;8.650;2023-12-04T03:35:23;22.43;;;14.40;;
4422;SDS011;2224;49.814;8.650;2023-12-04T03:37:48;20.80;;;13.47;;
4422;SDS011;2224;49.814;8.650;2023-12-04T03:40:14;17.50;;;12.77;;
4422;SDS011;2224;49.814;8.650;2023-12-04T03:42:41;18.73;;;13.15;;
4422;SDS011;2224;49.814;8.650;2023-12-04T03:45:06;20.83;;;14.70;;
4422;SDS011;2224;49.814;8.650;2023-12-04T03:47:32;20.17;;;12.70;;
4422;SDS011;2224;49.814;8.650;2023-12-04T03:49:57;18.40;;;13.30;;
4422;SDS011;2224;49.814;8.650;2023-12-04T03:52:23;18.20;;;12.33;;
4422;SDS011;2224;49.814;8.650;2023-12-04T03:54:48;19.13;;;12.30;;
4422;SDS011;2224;49.814;8.650;2023-12-04T03:57:13;21.40;;;13.20;;
4422;SDS011;2224;49.814;8.650;2023-12-04T03:59:38;17.30;;;12.40;;
4422;SDS011;2224;49.814;8.650;2023-12-04T04:02:04;20.60;;;13.37;;
4422;SDS011;2224;49.814;8.650;2023-12-04T04:04:29;20.70;;;13.80;;
4422;SDS011;2224;49.814;8.650;2023-12-04T04:06:54;18.00;;;13.00;;
4422;SDS011;2224;49.814;8.650;2023-12-04T04:09:20;21.63;;;13.47;;
4422;SDS011;2224;49.814;8.650;2023-12-04T04:11:45;19.40;;;13.60;;
4422;SDS011;2224;49.814;8.650;2023-12-04T04:14:11;22.43;;;15.23;;
4422;SDS011;2224;49.814;8.650;2023-12-04T04:16:36;20.13;;;13.30;;
4422;SDS011;2224;49.814;8.650;2023-12-04T04:19:01;17.77;;;12.20;;
4422;SDS011;2224;49.814;8.650;2023-12-04T04:21:27;20.30;;;14.60;;
4422;SDS011;2224;49.814;8.650;2023-12-04T04:23:52;22.40;;;14.20;;
4422;SDS011;2224;49.814;8.650;2023-12-04T04:26:18;22.30;;;13.63;;
4422;SDS011;2224;49.814;8.650;2023-12-04T04:28:44;20.27;;;13.17;;
4422;SDS011;2224;49.814;8.650;2023-12-04T04:31:09;18.90;;;12.20;;
4422;SDS011;2224;49.814;8.650;2023-12-04T04:33:34;20.97;;;12.67;;
4422;SDS011;2224;49.814;8.650;2023-12-04T04:36:00;22.13;;;14.27;;
4422;SDS011;2224;49.814;8.650;2023-12-04T04:38:25;19.77;;;13.60;;
4422;SDS011;2224;49.814;8.650;2023-12-04T04:40:51;18.10;;;12.37;;
4422;SDS011;2224;49.814;8.650;2023-12-04T04:43:17;21.45;;;13.95;;
4422;SDS011;2224;49.814;8.650;2023-12-04T04:45:43;20.30;;;13.03;;
4422;SDS011;2224;49.814;8.650;2023-12-04T04:48:08;23.27;;;14.30;;
4422;SDS011;2224;49.814;8.650;2023-12-04T04:50:33;19.43;;;13.27;;
4422;SDS011;2224;49.814;8.650;2023-12-04T04:52:59;20.33;;;13.60;;
4422;SDS011;2224;49.814;8.650;2023-12-04T04:55:24;22.00;;;15.00;;
4422;SDS011;2224;49.814;8.650;2023-12-04T04:57:49;21.47;;;13.90;;
4422;SDS011;2224;49.814;8.650;2023-12-04T05:00:14;22.20;;;15.63;;
4422;SDS011;2224;49.814;8.650;2023-12-04T05:02:41;25.42;;;15.20;;
4422;SDS011;2224;49.814;8.650;2023-12-04T05:05:06;20.53;;;14.37;;
4422;SDS011;2224;49.814;8.650;2023-12-04T05:07:32;22.97;;;14.67;;
4422;SDS011;2224;49.814;8.650;2023-12-04T05:09:57;22.00;;;13.47;;
4422;SDS011;2224;49.814;8.650;2023-12-04T05:12:22;21.07;;;14.60;;
4422;SDS011;2224;49.814;8.650;2023-12-04T05:14:48;25.33;;;14.30;;
4422;SDS011;2224;49.814;8.650;2023-12-04T05:17:13;19.97;;;13.93;;
4422;SDS011;2224;49.814;8.650;2023-12-04T05:19:38;17.70;;;12.67;;
4422;SDS011;2224;49.814;8.650;2023-12-04T05:22:03;21.87;;;14.60;;
4422;SDS011;2224;49.814;8.650;2023-12-04T05:24:29;20.67;;;14.30;;
4422;SDS011;2224;49.814;8.650;2023-12-04T05:26:54;20.03;;;13.27;;
4422;SDS011;2224;49.814;8.650;2023-12-04T05:29:19;21.20;;;13.67;;
4422;SDS011;2224;49.814;8.650;2023-12-04T05:31:45;20.57;;;12.53;;
4422;SDS011;2224;49.814;8.650;2023-12-04T05:34:10;23.80;;;15.83;;
4422;SDS011;2224;49.814;8.650;2023-12-04T05:36:35;20.10;;;14.40;;
4422;SDS011;2224;49.814;8.650;2023-12-04T05:39:01;19.40;;;14.53;;
4422;SDS011;2224;49.814;8.650;2023-12-04T05:41:26;25.10;;;12.80;;
4422;SDS011;2224;49.814;8.650;2023-12-04T05:43:51;20.20;;;13.33;;
4422;SDS011;2224;49.814;8.650;2023-12-04T05:46:17;24.03;;;14.80;;
4422;SDS011;2224;49.814;8.650;2023-12-04T05:48:42;24.70;;;14.67;;
4422;SDS011;2224;49.814;8.650;2023-12-04T05:51:07;21.27;;;13.53;;
4422;SDS011;2224;49.814;8.650;2023-12-04T05:53:33;22.47;;;15.10;;
4422;SDS011;2224;49.814;8.650;2023-12-04T05:55:58;24.30;;;14.93;;
4422;SDS011;2224;49.814;8.650;2023-12-04T05:58:23;20.93;;;14.07;;
4422;SDS011;2224;49.814;8.650;2023-12-04T06:00:48;23.10;;;16.17;;
4422;SDS011;2224;49.814;8.650;2023-12-04T06:03:14;26.50;;;15.03;;
4422;SDS011;2224;49.814;8.650;2023-12-04T06:05:40;21.03;;;14.23;;
4422;SDS011;2224;49.814;8.650;2023-12-04T06:08:05;22.70;;;15.47;;
4422;SDS011;2224;49.814;8.650;2023-12-04T06:10:30;21.87;;;14.83;;
4422;SDS011;2224;49.814;8.650;2023-12-04T06:12:55;23.80;;;15.10;;
4422;SDS011;2224;49.814;8.650;2023-12-04T06:15:21;22.47;;;15.63;;
4422;SDS011;2224;49.814;8.650;2023-12-04T06:17:46;23.43;;;15.13;;
4422;SDS011;2224;49.814;8.650;2023-12-04T06:20:11;20.80;;;14.47;;
4422;SDS011;2224;49.814;8.650;2023-12-04T06:22:37;19.43;;;13.50;;
4422;SDS011;2224;49.814;8.650;2023-12-04T06:25:02;20.63;;;12.60;;
4422;SDS011;2224;49.814;8.650;2023-12-04T06:27:28;21.70;;;13.90;;
4422;SDS011;2224;49.814;8.650;2023-12-04T06:29:54;22.93;;;14.70;;
4422;SDS011;2224;49.814;8.650;2023-12-04T06:32:19;23.07;;;13.87;;
4422;SDS011;2224;49.814;8.650;2023-12-04T06:34:45;23.30;;;14.80;;
4422;SDS011;2224;49.814;8.650;2023-12-04T06:37:11;20.67;;;14.07;;
4422;SDS011;2224;49.814;8.650;2023-12-04T06:39:37;17.63;;;13.10;;
4422;SDS011;2224;49.814;8.650;2023-12-04T06:42:04;21.42;;;13.52;;
4422;SDS011;2224;49.814;8.650;2023-12-04T06:44:31;19.38;;;12.98;;
4422;SDS011;2224;49.814;8.650;2023-12-04T06:46:56;24.33;;;14.90;;
4422;SDS011;2224;49.814;8.650;2023-12-04T06:49:25;19.40;;;12.20;;
4422;SDS011;2224;49.814;8.650;2023-12-04T06:51:53;20.75;;;13.65;;
4422;SDS011;2224;49.814;8.650;2023-12-04T06:54:19;25.47;;;14.00;;
4422;SDS011;2224;49.814;8.650;2023-12-04T06:56:44;19.87;;;14.30;;
4422;SDS011;2224;49.814;8.650;2023-12-04T06:59:09;22.43;;;12.50;;
4422;SDS011;2224;49.814;8.650;2023-12-04T07:01:35;18.63;;;13.30;;
4422;SDS011;2224;49.814;8.650;2023-12-04T07:04:00;18.27;;;13.20;;
4422;SDS011;2224;49.814;8.650;2023-12-04T07:06:25;17.67;;;12.13;;
4422;SDS011;2224;49.814;8.650;2023-12-04T07:08:51;14.37;;;11.10;;
4422;SDS011;2224;49.814;8.650;2023-12-04T07:11:16;21.13;;;13.60;;
4422;SDS011;2224;49.814;8.650;2023-12-04T07:13:41;18.37;;;12.57;;
4422;SDS011;2224;49.814;8.650;2023-12-04T07:16:07;24.07;;;12.77;;
4422;SDS011;2224;49.814;8.650;2023-12-04T07:18:33;18.87;;;12.43;;
4422;SDS011;2224;49.814;8.650;2023-12-04T07:20:58;23.13;;;12.53;;
4422;SDS011;2224;49.814;8.650;2023-12-04T07:23:23;20.10;;;13.37;;
4422;SDS011;2224;49.814;8.650;2023-12-04T07:25:49;20.30;;;13.63;;
4422;SDS011;2224;49.814;8.650;2023-12-04T07:28:16;22.48;;;14.82;;
4422;SDS011;2224;49.814;8.650;2023-12-04T07:30:42;20.63;;;12.60;;
4422;SDS011;2224;49.814;8.650;2023-12-04T07:33:07;18.17;;;12.63;;
4422;SDS011;2224;49.814;8.650;2023-12-04T07:35:32;22.37;;;13.53;;
4422;SDS011;2224;49.814;8.650;2023-12-04T07:37:58;18.23;;;13.13;;
4422;SDS011;2224;49.814;8.650;2023-12-04T07:40:24;17.93;;;14.10;;
4422;SDS011;2224;49.814;8.650;2023-12-04T07:42:49;18.93;;;12.20;;
4422;SDS011;2224;49.814;8.650;2023-12-04T07:45:15;18.80;;;12.10;;
4422;SDS011;2224;49.814;8.650;2023-12-04T07:47:40;18.53;;;13.00;;
4422;SDS011;2224;49.814;8.650;2023-12-04T07:50:06;21.17;;;12.07;;
4422;SDS011;2224;49.814;8.650;2023-12-04T07:52:31;19.37;;;12.63;;
4422;SDS011;2224;49.814;8.650;2023-12-04T07:54:57;20.07;;;12.13;;
4422;SDS011;2224;49.814;8.650;2023-12-04T07:57:22;18.47;;;14.33;;
4422;SDS011;2224;49.814;8.650;2023-12-04T07:59:47;19.03;;;12.90;;
4422;SDS011;2224;49.814;8.650;2023-12-04T08:02:13;19.40;;;12.90;;
4422;SDS011;2224;49.814;8.650;2023-12-04T08:04:38;18.87;;;12.97;;
4422;SDS011;2224;49.814;8.650;2023-12-04T08:07:04;18.27;;;13.33;;
4422;SDS011;2224;49.814;8.650;2023-12-04T08:09:30;26.55;;;15.50;;
4422;SDS011;2224;49.814;8.650;2023-12-04T08:11:55;27.70;;;17.17;;
4422;SDS011;2224;49.814;8.650;2023-12-04T08:14:20;28.43;;;17.00;;
4422;SDS011;2224;49.814;8.650;2023-12-04T08:16:47;19.83;;;13.30;;
4422;SDS011;2224;49.814;8.650;2023-12-04T08:19:13;22.10;;;13.15;;
4422;SDS011;2224;49.814;8.650;2023-12-04T08:21:38;17.43;;;11.47;;
4422;SDS011;2224;49.814;8.650;2023-12-04T08:24:03;16.73;;;11.27;;
4422;SDS011;2224;49.814;8.650;2023-12-04T08:26:29;15.97;;;11.33;;
4422;SDS011;2224;49.814;8.650;2023-12-04T08:28:54;16.40;;;12.27;;
4422;SDS011;2224;49.814;8.650;2023-12-04T08:31:19;21.30;;;12.63;;
4422;SDS011;2224;49.814;8.650;2023-12-04T08:33:45;16.40;;;11.20;;
4422;SDS011;2224;49.814;8.650;2023-12-04T08:36:10;16.90;;;10.80;;
4422;SDS011;2224;49.814;8.650;2023-12-04T08:38:36;18.88;;;11.02;;
4422;SDS011;2224;49.814;8.650;2023-12-04T08:41:01;13.00;;;10.20;;
4422;SDS011;2224;49.814;8.650;2023-12-04T08:43:28;21.25;;;15.32;;
4422;SDS011;2224;49.814;8.650;2023-12-04T08:45:53;15.60;;;11.77;;
4422;SDS011;2224;49.814;8.650;2023-12-04T08:48:20;22.10;;;14.05;;
4422;SDS011;2224;49.814;8.650;2023-12-04T08:50:45;19.60;;;15.07;;
4422;SDS011;2224;49.814;8.650;2023-12-04T08:53:11;15.27;;;11.40;;
4422;SDS011;2224;49.814;8.650;2023-12-04T08:55:37;15.57;;;10.40;;
4422;SDS011;2224;49.814;8.650;2023-12-04T08:58:02;17.33;;;12.17;;
4422;SDS011;2224;49.814;8.650;2023-12-04T09:00:27;19.23;;;13.17;;
4422;SDS011;2224;49.814;8.650;2023-12-04T09:02:53;20.10;;;11.93;;
4422;SDS011;2224;49.814;8.650;2023-12-04T09:05:18;15.87;;;10.43;;
4422;SDS011;2224;49.814;8.650;2023-12-04T09:07:43;17.47;;;11.80;;
4422;SDS011;2224;49.814;8.650;2023-12-04T09:10:09;13.13;;;9.90;;
4422;SDS011;2224;49.814;8.650;2023-12-04T09:12:34;17.77;;;12.27;;
4422;SDS011;2224;49.814;8.650;2023-12-04T09:15:01;13.63;;;10.65;;
4422;SDS011;2224;49.814;8.650;2023-12-04T09:17:28;17.10;;;11.90;;
4422;SDS011;2224;49.814;8.650;2023-12-04T09:19:53;15.40;;;10.60;;
4422;SDS011;2224;49.814;8.650;2023-12-04T09:22:19;15.30;;;10.43;;
4422;SDS011;2224;49.814;8.650;2023-12-04T09:24:44;14.03;;;9.73;;
4422;SDS011;2224;49.814;8.650;2023-12-04T09:27:10;14.67;;;10.80;;
4422;SDS011;2224;49.814;8.650;2023-12-04T09:29:35;13.83;;;10.07;;
4422;SDS011;2224;49.814;8.650;2023-12-04T09:32:00;15.83;;;11.17;;
4422;SDS011;2224;49.814;8.650;2023-12-04T09:34:26;15.03;;;10.17;;
4422;SDS011;2224;49.814;8.650;2023-12-04T09:36:51;17.77;;;11.57;;
4422;SDS011;2224;49.814;8.650;2023-12-04T09:39:16;19.30;;;11.97;;
4422;SDS011;2224;49.814;8.650;2023-12-04T09:41:42;19.40;;;12.23;;
4422;SDS011;2224;49.814;8.650;2023-12-04T09:44:08;24.00;;;12.48;;
4422;SDS011;2224;49.814;8.650;2023-12-04T09:46:34;16.13;;;11.80;;
4422;SDS011;2224;49.814;8.650;2023-12-04T09:49:00;16.10;;;11.70;;
4422;SDS011;2224;49.814;8.650;2023-12-04T09:51:26;16.73;;;12.57;;
4422;SDS011;2224;49.814;8.650;2023-12-04T09:53:52;16.80;;;12.55;;
4422;SDS011;2224;49.814;8.650;2023-12-04T09:56:17;18.13;;;12.47;;
4422;SDS011;2224;49.814;8.650;2023-12-04T09:58:43;20.80;;;13.33;;
4422;SDS011;2224;49.814;8.650;2023-12-04T10:01:09;18.30;;;12.45;;
4422;SDS011;2224;49.814;8.650;2023-12-04T10:03:35;23.27;;;12.50;;
4422;SDS011;2224;49.814;8.650;2023-12-04T10:06:00;18.80;;;13.00;;
4422;SDS011;2224;49.814;8.650;2023-12-04T10:08:26;16.47;;;12.80;;
4422;SDS011;2224;49.814;8.650;2023-12-04T10:10:51;22.90;;;12.67;;
4422;SDS011;2224;49.814;8.650;2023-12-04T10:13:16;21.20;;;14.07;;
4422;SDS011;2224;49.814;8.650;2023-12-04T10:15:48;18.83;;;13.10;;
4422;SDS011;2224;49.814;8.650;2023-12-04T10:18:26;20.50;;;14.48;;
4422;SDS011;2224;49.814;8.650;2023-12-04T10:20:55;26.48;;;13.98;;
4422;SDS011;2224;49.814;8.650;2023-12-04T10:23:21;21.00;;;13.87;;
4422;SDS011;2224;49.814;8.650;2023-12-04T10:25:48;19.53;;;12.70;;
4422;SDS011;2224;49.814;8.650;2023-12-04T10:28:15;18.60;;;14.27;;
4422;SDS011;2224;49.814;8.650;2023-12-04T10:30:41;21.77;;;15.40;;
4422;SDS011;2224;49.814;8.650;2023-12-04T10:33:06;21.90;;;14.50;;
4422;SDS011;2224;49.814;8.650;2023-12-04T10:35:33;25.63;;;14.63;;
4422;SDS011;2224;49.814;8.650;2023-12-04T10:38:02;27.92;;;15.13;;
4422;SDS011;2224;49.814;8.650;2023-12-04T10:40:28;18.15;;;12.30;;
4422;SDS011;2224;49.814;8.650;2023-12-04T10:45:33;18.55;;;13.40;;
4422;SDS011;2224;49.814;8.650;2023-12-04T10:47:59;17.10;;;11.57;;
4422;SDS011;2224;49.814;8.650;2023-12-04T10:50:25;18.87;;;13.47;;
4422;SDS011;2224;49.814;8.650;2023-12-04T10:52:52;18.70;;;13.25;;
4422;SDS011;2224;49.814;8.650;2023-12-04T10:55:18;18.15;;;12.93;;
4422;SDS011;2224;49.814;8.650;2023-12-04T10:57:44;20.90;;;12.90;;
4422;SDS011;2224;49.814;8.650;2023-12-04T11:00:10;21.87;;;15.30;;
4422;SDS011;2224;49.814;8.650;2023-12-04T11:02:37;20.27;;;13.32;;
4422;SDS011;2224;49.814;8.650;2023-12-04T11:05:07;18.95;;;12.85;;
4422;SDS011;2224;49.814;8.650;2023-12-04T11:07:38;21.67;;;13.65;;
4422;SDS011;2224;49.814;8.650;2023-12-04T11:10:06;21.25;;;15.18;;
4422;SDS011;2224;49.814;8.650;2023-12-04T11:12:33;20.25;;;14.05;;
4422;SDS011;2224;49.814;8.650;2023-12-04T11:14:59;18.80;;;13.47;;
4422;SDS011;2224;49.814;8.650;2023-12-04T11:17:27;20.20;;;13.82;;
4422;SDS011;2224;49.814;8.650;2023-12-04T11:19:55;17.65;;;13.85;;
4422;SDS011;2224;49.814;8.650;2023-12-04T11:22:26;20.85;;;14.57;;
4422;SDS011;2224;49.814;8.650;2023-12-04T11:24:52;19.87;;;13.37;;
4422;SDS011;2224;49.814;8.650;2023-12-04T11:27:17;24.30;;;15.77;;
4422;SDS011;2224;49.814;8.650;2023-12-04T11:29:44;20.53;;;13.03;;
4422;SDS011;2224;49.814;8.650;2023-12-04T11:32:14;19.58;;;13.57;;
4422;SDS011;2224;49.814;8.650;2023-12-04T11:34:47;29.80;;;15.40;;
4422;SDS011;2224;49.814;8.650;2023-12-04T11:37:13;20.60;;;13.60;;
4422;SDS011;2224;49.814;8.650;2023-12-04T11:39:38;17.77;;;13.40;;
4422;SDS011;2224;49.814;8.650;2023-12-04T11:42:06;25.23;;;16.00;;
4422;SDS011;2224;49.814;8.650;2023-12-04T11:44:32;22.35;;;14.88;;
4422;SDS011;2224;49.814;8.650;2023-12-04T11:47:05;18.25;;;12.77;;
4422;SDS011;2224;49.814;8.650;2023-12-04T11:49:31;19.55;;;14.38;;
4422;SDS011;2224;49.814;8.650;2023-12-04T11:51:57;17.50;;;12.67;;
4422;SDS011;2224;49.814;8.650;2023-12-04T11:54:24;22.40;;;13.73;;
4422;SDS011;2224;49.814;8.650;2023-12-04T11:59:47;21.67;;;13.70;;
4422;SDS011;2224;49.814;8.650;2023-12-04T12:02:13;18.60;;;13.93;;
4422;SDS011;2224;49.814;8.650;2023-12-04T12:04:40;16.25;;;13.07;;
4422;SDS011;2224;49.814;8.650;2023-12-04T12:07:05;19.80;;;13.30;;
4422;SDS011;2224;49.814;8.650;2023-12-04T12:09:31;20.00;;;13.67;;
4422;SDS011;2224;49.814;8.650;2023-12-04T12:11:59;21.48;;;14.90;;
4422;SDS011;2224;49.814;8.650;2023-12-04T12:14:25;20.98;;;14.00;;
4422;SDS011;2224;49.814;8.650;2023-12-04T12:16:50;20.20;;;13.10;;
4422;SDS011;2224;49.814;8.650;2023-12-04T12:19:16;22.10;;;16.77;;
4422;SDS011;2224;49.814;8.650;2023-12-04T12:21:43;23.50;;;15.40;;
4422;SDS011;2224;49.814;8.650;2023-12-04T12:24:10;22.10;;;15.70;;
4422;SDS011;2224;49.814;8.650;2023-12-04T12:26:36;23.35;;;15.70;;
4422;SDS011;2224;49.814;8.650;2023-12-04T12:29:01;24.70;;;15.90;;
4422;SDS011;2224;49.814;8.650;2023-12-04T12:31:27;23.93;;;15.10;;
4422;SDS011;2224;49.814;8.650;2023-12-04T12:33:53;23.38;;;15.38;;
4422;SDS011;2224;49.814;8.650;2023-12-04T12:36:20;22.85;;;14.35;;
4422;SDS011;2224;49.814;8.650;2023-12-04T12:38:45;22.27;;;14.37;;
4422;SDS011;2224;49.814;8.650;2023-12-04T12:41:15;22.25;;;13.95;;
4422;SDS011;2224;49.814;8.650;2023-12-04T12:43:43;22.02;;;16.05;;
4422;SDS011;2224;49.814;8.650;2023-12-04T12:46:09;25.47;;;15.03;;
4422;SDS011;2224;49.814;8.650;2023-12-04T12:48:35;22.95;;;14.00;;
4422;SDS011;2224;49.814;8.650;2023-12-04T12:51:02;18.00;;;12.83;;
4422;SDS011;2224;49.814;8.650;2023-12-04T12:53:27;19.58;;;14.05;;
4422;SDS011;2224;49.814;8.650;2023-12-04T12:55:53;19.20;;;12.90;;
4422;SDS011;2224;49.814;8.650;2023-12-04T12:58:18;19.80;;;12.93;;
4422;SDS011;2224;49.814;8.650;2023-12-04T13:00:45;22.15;;;13.93;;
4422;SDS011;2224;49.814;8.650;2023-12-04T13:03:15;23.55;;;14.25;;
4422;SDS011;2224;49.814;8.650;2023-12-04T13:05:41;19.30;;;12.75;;
4422;SDS011;2224;49.814;8.650;2023-12-04T13:08:06;17.87;;;13.10;;
4422;SDS011;2224;49.814;8.650;2023-12-04T13:10:31;21.23;;;15.03;;
4422;SDS011;2224;49.814;8.650;2023-12-04T13:12:57;20.73;;;13.83;;
4422;SDS011;2224;49.814;8.650;2023-12-04T13:15:24;17.38;;;12.50;;
4422;SDS011;2224;49.814;8.650;2023-12-04T13:17:50;19.93;;;11.53;;
4422;SDS011;2224;49.814;8.650;2023-12-04T13:20:15;18.03;;;12.13;;
4422;SDS011;2224;49.814;8.650;2023-12-04T13:22:41;17.25;;;11.30;;
4422;SDS011;2224;49.814;8.650;2023-12-04T13:25:07;21.43;;;13.03;;
4422;SDS011;2224;49.814;8.650;2023-12-04T13:27:34;17.15;;;12.35;;
4422;SDS011;2224;49.814;8.650;2023-12-04T13:30:03;16.17;;;10.38;;
4422;SDS011;2224;49.814;8.650;2023-12-04T13:32:33;16.25;;;11.60;;
4422;SDS011;2224;49.814;8.650;2023-12-04T13:34:59;21.52;;;13.60;;
4422;SDS011;2224;49.814;8.650;2023-12-04T13:37:24;16.13;;;12.70;;
4422;SDS011;2224;49.814;8.650;2023-12-04T13:39:51;18.73;;;12.60;;
4422;SDS011;2224;49.814;8.650;2023-12-04T13:42:23;18.33;;;12.90;;
4422;SDS011;2224;49.814;8.650;2023-12-04T13:45:07;25.63;;;15.25;;
4422;SDS011;2224;49.814;8.650;2023-12-04T13:47:34;28.77;;;16.48;;
4422;SDS011;2224;49.814;8.650;2023-12-04T13:50:00;27.70;;;16.90;;
4422;SDS011;2224;49.814;8.650;2023-12-04T13:52:25;60.50;;;38.40;;
4422;SDS011;2224;49.814;8.650;2023-12-04T13:54:57;32.42;;;23.75;;
4422;SDS011;2224;49.814;8.650;2023-12-04T13:57:23;22.40;;;15.63;;
4422;SDS011;2224;49.814;8.650;2023-12-04T13:59:58;19.70;;;14.68;;
4422;SDS011;2224;49.814;8.650;2023-12-04T14:02:24;21.27;;;14.38;;
4422;SDS011;2224;49.814;8.650;2023-12-04T14:04:50;21.93;;;16.07;;
4422;SDS011;2224;49.814;8.650;2023-12-04T14:07:15;19.70;;;14.17;;
4422;SDS011;2224;49.814;8.650;2023-12-04T14:09:42;25.98;;;15.38;;
4422;SDS011;2224;49.814;8.650;2023-12-04T14:12:08;19.10;;;13.73;;
4422;SDS011;2224;49.814;8.650;2023-12-04T14:14:33;19.80;;;14.17;;
4422;SDS011;2224;49.814;8.650;2023-12-04T14:17:00;18.25;;;13.13;;
4422;SDS011;2224;49.814;8.650;2023-12-04T14:19:28;18.23;;;12.68;;
4422;SDS011;2224;49.814;8.650;2023-12-04T14:21:53;28.17;;;14.13;;
4422;SDS011;2224;49.814;8.650;2023-12-04T14:24:19;26.80;;;14.43;;
4422;SDS011;2224;49.814;8.650;2023-12-04T14:26:44;27.37;;;17.10;;
4422;SDS011;2224;49.814;8.650;2023-12-04T14:29:09;34.27;;;20.30;;
4422;SDS011;2224;49.814;8.650;2023-12-04T14:31:35;36.60;;;19.50;;
4422;SDS011;2224;49.814;8.650;2023-12-04T14:34:00;34.97;;;21.33;;
4422;SDS011;2224;49.814;8.650;2023-12-04T14:36:27;34.38;;;19.30;;
4422;SDS011;2224;49.814;8.650;2023-12-04T14:38:54;36.65;;;21.08;;
4422;SDS011;2224;49.814;8.650;2023-12-04T14:41:19;31.10;;;21.47;;
4422;SDS011;2224;49.814;8.650;2023-12-04T14:43:46;37.40;;;19.90;;
4422;SDS011;2224;49.814;8.650;2023-12-04T14:46:11;32.83;;;22.05;;